sensor_id;sensor_type;location;lat;lon;timestamp;pressure;altitude;pressure_sealevel;temperature;humidity
2761;BME280;15420;48.636;9.798;2023-02-20T00:00:59;97724.25;;;10.32;91.18
2761;BME280;15420;48.636;9.798;2023-02-20T00:03:26;97725.13;;;10.33;91.41
2761;BME280;15420;48.636;9.798;2023-02-20T00:05:52;97725.13;;;10.33;91.41
2761;BME280;15420;48.636;9.798;2023-02-20T00:08:19;97726.00;;;10.33;91.52
2761;BME280;15420;48.636;9.798;2023-02-20T00:10:45;97720.91;;;10.35;91.78
2761;BME280;15420;48.636;9.798;2023-02-20T00:13:11;97726.94;;;10.35;91.78
2761;BME280;15420;48.636;9.798;2023-02-20T00:15:37;97726.09;;;10.36;91.61
2761;BME280;15420;48.636;9.798;2023-02-20T00:18:03;97719.16;;;10.34;91.71
2761;BME280;15420;48.636;9.798;2023-02-20T00:20:29;97725.16;;;10.34;91.93
2761;BME280;15420;48.636;9.798;2023-02-20T00:22:56;97727.81;;;10.36;91.85
2761;BME280;15420;48.636;9.798;2023-02-20T00:25:25;97721.78;;;10.35;92.18
2761;BME280;15420;48.636;9.798;2023-02-20T00:27:51;97720.22;;;10.40;92.44
2761;BME280;15420;48.636;9.798;2023-02-20T00:30:24;97720.94;;;10.36;92.01
2761;BME280;15420;48.636;9.798;2023-02-20T00:32:52;97721.84;;;10.37;91.85
2761;BME280;15420;48.636;9.798;2023-02-20T00:35:24;97717.56;;;10.37;92.17
2761;BME280;15420;48.636;9.798;2023-02-20T00:37:51;97718.38;;;10.36;92.12
2761;BME280;15420;48.636;9.798;2023-02-20T00:40:19;97716.63;;;10.35;91.99
2761;BME280;15420;48.636;9.798;2023-02-20T00:42:48;97713.28;;;10.38;92.12
2761;BME280;15420;48.636;9.798;2023-02-20T00:45:19;97717.50;;;10.36;91.74
2761;BME280;15420;48.636;9.798;2023-02-20T00:47:46;97708.91;;;10.35;91.96
2761;BME280;15420;48.636;9.798;2023-02-20T00:50:16;97723.53;;;10.36;92.45
2761;BME280;15420;48.636;9.798;2023-02-20T00:52:45;97726.06;;;10.35;92.33
2761;BME280;15420;48.636;9.798;2023-02-20T00:55:12;97738.00;;;10.33;92.61
2761;BME280;15420;48.636;9.798;2023-02-20T00:57:40;97748.47;;;10.37;92.00
2761;BME280;15420;48.636;9.798;2023-02-20T01:00:15;97748.41;;;10.36;92.50
2761;BME280;15420;48.636;9.798;2023-02-20T01:02:42;97757.84;;;10.35;92.37
2761;BME280;15420;48.636;9.798;2023-02-20T01:05:08;97756.19;;;10.37;92.41
2761;BME280;15420;48.636;9.798;2023-02-20T01:07:34;97739.88;;;10.37;92.36
2761;BME280;15420;48.636;9.798;2023-02-20T01:10:03;97739.88;;;10.37;92.82
2761;BME280;15420;48.636;9.798;2023-02-20T01:12:30;97740.00;;;10.41;93.15
2761;BME280;15420;48.636;9.798;2023-02-20T01:14:56;97744.97;;;10.35;92.71
2761;BME280;15420;48.636;9.798;2023-02-20T01:17:22;97740.50;;;10.31;92.21
2761;BME280;15420;48.636;9.798;2023-02-20T01:19:48;97738.75;;;10.30;92.11
2761;BME280;15420;48.636;9.798;2023-02-20T01:22:14;97732.69;;;10.28;91.97
2761;BME280;15420;48.636;9.798;2023-02-20T01:24:40;97725.81;;;10.29;92.36
2761;BME280;15420;48.636;9.798;2023-02-20T01:27:08;97728.28;;;10.26;92.26
2761;BME280;15420;48.636;9.798;2023-02-20T01:29:37;97719.75;;;10.27;92.90
2761;BME280;15420;48.636;9.798;2023-02-20T01:32:08;97724.13;;;10.29;92.89
2761;BME280;15420;48.636;9.798;2023-02-20T01:34:36;97718.81;;;10.25;92.11
2761;BME280;15420;48.636;9.798;2023-02-20T01:37:04;97712.72;;;10.23;91.98
2761;BME280;15420;48.636;9.798;2023-02-20T01:39:30;97711.84;;;10.22;92.34
2761;BME280;15420;48.636;9.798;2023-02-20T01:42:07;97724.72;;;10.22;92.30
2761;BME280;15420;48.636;9.798;2023-02-20T01:44:39;97721.06;;;10.17;92.04
2761;BME280;15420;48.636;9.798;2023-02-20T01:47:08;97708.34;;;10.20;92.03
2761;BME280;15420;48.636;9.798;2023-02-20T01:49:36;97713.38;;;10.19;91.30
2761;BME280;15420;48.636;9.798;2023-02-20T01:52:17;97712.47;;;10.16;91.87
2761;BME280;15420;48.636;9.798;2023-02-20T01:54:51;97707.25;;;10.15;90.48
2761;BME280;15420;48.636;9.798;2023-02-20T01:57:27;97707.13;;;10.12;90.28
2761;BME280;15420;48.636;9.798;2023-02-20T01:59:58;97712.22;;;10.10;90.26
2761;BME280;15420;48.636;9.798;2023-02-20T02:02:29;97709.72;;;10.12;90.00
2761;BME280;15420;48.636;9.798;2023-02-20T02:05:02;97702.69;;;10.08;89.77
2761;BME280;15420;48.636;9.798;2023-02-20T02:07:29;97708.66;;;10.07;90.33
2761;BME280;15420;48.636;9.798;2023-02-20T02:10:01;97701.69;;;10.04;90.20
2761;BME280;15420;48.636;9.798;2023-02-20T02:12:28;97704.22;;;10.03;89.73
2761;BME280;15420;48.636;9.798;2023-02-20T02:14:54;97701.56;;;10.01;89.15
2761;BME280;15420;48.636;9.798;2023-02-20T02:40:03;97678.53;;;9.82;87.89
2761;BME280;15420;48.636;9.798;2023-02-20T02:42:47;97686.94;;;9.78;87.69
2761;BME280;15420;48.636;9.798;2023-02-20T02:48:16;97685.91;;;9.73;87.92
2761;BME280;15420;48.636;9.798;2023-02-20T02:50:46;97686.66;;;9.70;88.00
2761;BME280;15420;48.636;9.798;2023-02-20T02:53:14;97691.81;;;9.70;88.41
2761;BME280;15420;48.636;9.798;2023-02-20T02:55:41;97687.53;;;9.71;88.14
2761;BME280;15420;48.636;9.798;2023-02-20T02:58:07;97695.38;;;9.74;89.01
2761;BME280;15420;48.636;9.798;2023-02-20T03:03:40;97686.72;;;9.72;87.92
2761;BME280;15420;48.636;9.798;2023-02-20T03:08:45;97692.75;;;9.72;88.39
2761;BME280;15420;48.636;9.798;2023-02-20T03:11:15;97680.75;;;9.73;88.59
2761;BME280;15420;48.636;9.798;2023-02-20T03:13:48;97682.44;;;9.72;87.93
2761;BME280;15420;48.636;9.798;2023-02-20T03:17:04;97680.75;;;9.73;88.42
2761;BME280;15420;48.636;9.798;2023-02-20T03:19:48;97680.69;;;9.71;88.34
2761;BME280;15420;48.636;9.798;2023-02-20T03:24:48;97685.97;;;9.74;89.11
2761;BME280;15420;48.636;9.798;2023-02-20T03:30:36;97690.28;;;9.75;88.11
2761;BME280;15420;48.636;9.798;2023-02-20T03:33:12;97686.84;;;9.75;87.71
2761;BME280;15420;48.636;9.798;2023-02-20T03:36:02;97689.34;;;9.73;87.49
2761;BME280;15420;48.636;9.798;2023-02-20T03:38:52;97686.84;;;9.75;87.08
2761;BME280;15420;48.636;9.798;2023-02-20T03:41:39;97692.84;;;9.75;87.83
2761;BME280;15420;48.636;9.798;2023-02-20T03:44:26;97683.44;;;9.76;88.24
2761;BME280;15420;48.636;9.798;2023-02-20T03:46:55;97687.72;;;9.75;88.32
2761;BME280;15420;48.636;9.798;2023-02-20T03:49:26;97677.47;;;9.77;87.19
2761;BME280;15420;48.636;9.798;2023-02-20T03:51:55;97686.94;;;9.78;87.57
2761;BME280;15420;48.636;9.798;2023-02-20T03:54:26;97686.94;;;9.78;87.01
2761;BME280;15420;48.636;9.798;2023-02-20T03:56:58;97688.66;;;9.77;87.37
2761;BME280;15420;48.636;9.798;2023-02-20T03:59:46;97705.03;;;9.79;88.40
2761;BME280;15420;48.636;9.798;2023-02-20T04:02:33;97689.53;;;9.78;88.30
2761;BME280;15420;48.636;9.798;2023-02-20T04:05:09;97692.03;;;9.76;88.24
2761;BME280;15420;48.636;9.798;2023-02-20T04:10:19;97688.59;;;9.76;87.76
2761;BME280;15420;48.636;9.798;2023-02-20T04:12:48;97686.00;;;9.76;88.45
2761;BME280;15420;48.636;9.798;2023-02-20T04:15:20;97680.81;;;9.74;88.39
2761;BME280;15420;48.636;9.798;2023-02-20T04:17:54;97673.16;;;9.76;88.49
2761;BME280;15420;48.636;9.798;2023-02-20T04:20:23;97679.06;;;9.73;88.23
2761;BME280;15420;48.636;9.798;2023-02-20T04:22:54;97672.16;;;9.72;87.23
2761;BME280;15420;48.636;9.798;2023-02-20T04:28:15;97676.34;;;9.70;86.42
2761;BME280;15420;48.636;9.798;2023-02-20T04:30:42;97681.50;;;9.70;85.51
2761;BME280;15420;48.636;9.798;2023-02-20T04:33:12;97679.75;;;9.69;86.02
2761;BME280;15420;48.636;9.798;2023-02-20T04:35:38;97675.38;;;9.67;85.45
2761;BME280;15420;48.636;9.798;2023-02-20T04:38:10;97668.53;;;9.67;85.37
2761;BME280;15420;48.636;9.798;2023-02-20T04:40:36;97670.16;;;9.65;85.53
2761;BME280;15420;48.636;9.798;2023-02-20T04:43:03;97663.25;;;9.64;85.31
2761;BME280;15420;48.636;9.798;2023-02-20T04:45:29;97665.72;;;9.61;84.20
2761;BME280;15420;48.636;9.798;2023-02-20T04:47:56;97646.59;;;9.55;83.96
2761;BME280;15420;48.636;9.798;2023-02-20T04:50:28;97662.16;;;9.58;83.74
2761;BME280;15420;48.636;9.798;2023-02-20T04:52:55;97665.47;;;9.55;83.96
2761;BME280;15420;48.636;9.798;2023-02-20T04:55:24;97667.03;;;9.51;84.69
2761;BME280;15420;48.636;9.798;2023-02-20T04:57:53;97669.50;;;9.48;84.14
2761;BME280;15420;48.636;9.798;2023-02-20T05:00:21;97676.22;;;9.45;84.84
2761;BME280;15420;48.636;9.798;2023-02-20T05:02:50;97674.53;;;9.45;85.60
2761;BME280;15420;48.636;9.798;2023-02-20T05:05:18;97678.59;;;9.40;85.23
2761;BME280;15420;48.636;9.798;2023-02-20T05:07:45;97680.19;;;9.37;85.81
2761;BME280;15420;48.636;9.798;2023-02-20T05:10:19;97678.34;;;9.33;86.15
2761;BME280;15420;48.636;9.798;2023-02-20T05:12:48;97684.16;;;9.29;86.15
2761;BME280;15420;48.636;9.798;2023-02-20T05:15:14;97685.75;;;9.25;86.00
2761;BME280;15420;48.636;9.798;2023-02-20T05:17:41;97683.78;;;9.20;85.59
2761;BME280;15420;48.636;9.798;2023-02-20T05:20:10;97681.03;;;9.15;85.79
2761;BME280;15420;48.636;9.798;2023-02-20T05:22:37;97680.91;;;9.12;85.86
2761;BME280;15420;48.636;9.798;2023-02-20T05:25:03;97682.47;;;9.08;86.35
2761;BME280;15420;48.636;9.798;2023-02-20T05:27:35;97686.75;;;9.08;85.96
2761;BME280;15420;48.636;9.798;2023-02-20T05:30:02;97688.25;;;9.03;86.53
2761;BME280;15420;48.636;9.798;2023-02-20T05:32:30;97689.75;;;8.98;87.12
2761;BME280;15420;48.636;9.798;2023-02-20T05:34:57;97690.38;;;8.92;87.10
2761;BME280;15420;48.636;9.798;2023-02-20T05:37:25;97698.75;;;8.88;86.86
2761;BME280;15420;48.636;9.798;2023-02-20T05:39:51;97688.28;;;8.83;87.14
2761;BME280;15420;48.636;9.798;2023-02-20T05:42:17;97691.59;;;8.81;87.25
2761;BME280;15420;48.636;9.798;2023-02-20T05:44:44;97689.78;;;8.78;87.85
2761;BME280;15420;48.636;9.798;2023-02-20T05:47:11;97693.91;;;8.75;88.09
2761;BME280;15420;48.636;9.798;2023-02-20T05:49:37;97687.63;;;8.68;87.94
2761;BME280;15420;48.636;9.798;2023-02-20T05:52:05;97690.13;;;8.67;87.96
2761;BME280;15420;48.636;9.798;2023-02-20T05:54:40;97684.88;;;8.64;88.58
2761;BME280;15420;48.636;9.798;2023-02-20T05:57:08;97680.22;;;8.55;87.50
2761;BME280;15420;48.636;9.798;2023-02-20T05:59:36;97687.78;;;8.52;88.74
2761;BME280;15420;48.636;9.798;2023-02-20T06:02:02;97682.44;;;8.47;88.54
2761;BME280;15420;48.636;9.798;2023-02-20T06:04:29;97684.75;;;8.41;89.18
2761;BME280;15420;48.636;9.798;2023-02-20T06:06:55;97683.81;;;8.39;88.86
2761;BME280;15420;48.636;9.798;2023-02-20T06:09:21;97687.06;;;8.35;89.30
2761;BME280;15420;48.636;9.798;2023-02-20T06:11:54;97697.06;;;8.29;88.44
2761;BME280;15420;48.636;9.798;2023-02-20T06:14:25;97695.09;;;8.24;88.93
2761;BME280;15420;48.636;9.798;2023-02-20T06:16:52;97703.38;;;8.18;89.43
2761;BME280;15420;48.636;9.798;2023-02-20T06:19:24;97707.56;;;8.16;89.19
2761;BME280;15420;48.636;9.798;2023-02-20T06:21:56;97694.41;;;8.08;89.68
2761;BME280;15420;48.636;9.798;2023-02-20T06:24:23;97695.06;;;8.04;90.02
2761;BME280;15420;48.636;9.798;2023-02-20T06:26:55;97694.94;;;8.01;89.85
2761;BME280;15420;48.636;9.798;2023-02-20T06:29:21;97696.41;;;7.96;90.81
2761;BME280;15420;48.636;9.798;2023-02-20T06:31:48;97696.34;;;7.95;90.60
2761;BME280;15420;48.636;9.798;2023-02-20T06:34:14;97701.25;;;7.90;90.99
2761;BME280;15420;48.636;9.798;2023-02-20T06:36:41;97703.75;;;7.88;90.24
2761;BME280;15420;48.636;9.798;2023-02-20T06:39:10;97706.19;;;7.85;90.34
2761;BME280;15420;48.636;9.798;2023-02-20T06:41:36;97707.56;;;7.79;91.51
2761;BME280;15420;48.636;9.798;2023-02-20T06:44:02;97723.63;;;7.75;90.34
2761;BME280;15420;48.636;9.798;2023-02-20T06:46:29;97713.97;;;7.69;91.19
2761;BME280;15420;48.636;9.798;2023-02-20T06:48:57;97711.91;;;7.62;91.23
2761;BME280;15420;48.636;9.798;2023-02-20T06:51:28;97721.06;;;7.57;91.77
2761;BME280;15420;48.636;9.798;2023-02-20T06:53:58;97719.25;;;7.54;91.43
2761;BME280;15420;48.636;9.798;2023-02-20T06:56:29;97713.91;;;7.50;92.54
2761;BME280;15420;48.636;9.798;2023-02-20T06:58:56;97714.63;;;7.47;92.83
2761;BME280;15420;48.636;9.798;2023-02-20T07:01:25;97711.19;;;7.47;92.20
2761;BME280;15420;48.636;9.798;2023-02-20T07:03:52;97721.28;;;7.44;92.51
2761;BME280;15420;48.636;9.798;2023-02-20T07:06:24;97723.72;;;7.41;93.18
2761;BME280;15420;48.636;9.798;2023-02-20T07:08:53;97721.06;;;7.39;93.96
2761;BME280;15420;48.636;9.798;2023-02-20T07:11:21;97723.56;;;7.38;94.76
2761;BME280;15420;48.636;9.798;2023-02-20T07:13:48;97733.09;;;7.40;94.53
2761;BME280;15420;48.636;9.798;2023-02-20T07:16:14;97722.69;;;7.37;94.71
2761;BME280;15420;48.636;9.798;2023-02-20T07:18:41;97728.69;;;7.38;95.55
2761;BME280;15420;48.636;9.798;2023-02-20T07:21:07;97732.06;;;7.37;95.66
2761;BME280;15420;48.636;9.798;2023-02-20T07:23:34;97736.22;;;7.35;94.94
2761;BME280;15420;48.636;9.798;2023-02-20T07:26:02;97725.91;;;7.33;95.39
2761;BME280;15420;48.636;9.798;2023-02-20T07:28:31;97724.22;;;7.34;95.35
2761;BME280;15420;48.636;9.798;2023-02-20T07:30:58;97719.91;;;7.33;96.50
2761;BME280;15420;48.636;9.798;2023-02-20T07:33:24;97721.66;;;7.34;96.48
2761;BME280;15420;48.636;9.798;2023-02-20T07:35:53;97716.47;;;7.32;97.05
2761;BME280;15420;48.636;9.798;2023-02-20T07:38:19;97719.97;;;7.34;96.94
2761;BME280;15420;48.636;9.798;2023-02-20T07:40:47;97717.41;;;7.34;96.83
2761;BME280;15420;48.636;9.798;2023-02-20T07:43:16;97724.28;;;7.35;96.79
2761;BME280;15420;48.636;9.798;2023-02-20T07:45:44;97726.06;;;7.36;97.56
2761;BME280;15420;48.636;9.798;2023-02-20T07:48:10;97727.81;;;7.37;97.39
2761;BME280;15420;48.636;9.798;2023-02-20T07:50:36;97717.56;;;7.37;97.07
2761;BME280;15420;48.636;9.798;2023-02-20T07:53:05;97727.00;;;7.38;97.65
2761;BME280;15420;48.636;9.798;2023-02-20T07:58:54;97720.94;;;7.36;98.09
2761;BME280;15420;48.636;9.798;2023-02-20T08:01:20;97715.16;;;7.40;98.48
2761;BME280;15420;48.636;9.798;2023-02-20T08:03:48;97712.66;;;7.42;98.34
2761;BME280;15420;48.636;9.798;2023-02-20T08:06:18;97711.91;;;7.44;98.55
2761;BME280;15420;48.636;9.798;2023-02-20T08:08:50;97706.94;;;7.47;99.09
2761;BME280;15420;48.636;9.798;2023-02-20T08:11:22;97708.78;;;7.50;99.05
2761;BME280;15420;48.636;9.798;2023-02-20T08:13:48;97699.47;;;7.52;99.04
2761;BME280;15420;48.636;9.798;2023-02-20T08:16:20;97703.06;;;7.55;99.57
2761;BME280;15420;48.636;9.798;2023-02-20T08:18:47;97698.94;;;7.59;99.89
2761;BME280;15420;48.636;9.798;2023-02-20T08:21:13;97687.09;;;7.61;100.00
2761;BME280;15420;48.636;9.798;2023-02-20T08:23:40;97683.78;;;7.64;99.81
2761;BME280;15420;48.636;9.798;2023-02-20T08:26:06;97684.81;;;7.67;99.56
2761;BME280;15420;48.636;9.798;2023-02-20T08:28:32;97688.38;;;7.71;99.84
2761;BME280;15420;48.636;9.798;2023-02-20T08:31:01;97683.47;;;7.75;100.00
2761;BME280;15420;48.636;9.798;2023-02-20T08:33:30;97690.44;;;7.78;99.92
2761;BME280;15420;48.636;9.798;2023-02-20T08:35:56;97680.38;;;7.82;99.80
2761;BME280;15420;48.636;9.798;2023-02-20T08:38:33;97680.66;;;7.88;99.75
2761;BME280;15420;48.636;9.798;2023-02-20T08:41:04;97678.25;;;7.92;99.83
2761;BME280;15420;48.636;9.798;2023-02-20T08:43:35;97676.75;;;7.97;98.66
2761;BME280;15420;48.636;9.798;2023-02-20T08:46:05;97672.72;;;8.02;98.24
2761;BME280;15420;48.636;9.798;2023-02-20T08:48:32;97673.88;;;8.08;98.50
2761;BME280;15420;48.636;9.798;2023-02-20T08:50:58;97665.56;;;8.14;97.98
2761;BME280;15420;48.636;9.798;2023-02-20T08:53:24;97652.13;;;8.19;97.70
2761;BME280;15420;48.636;9.798;2023-02-20T08:55:53;97656.72;;;8.27;96.44
2761;BME280;15420;48.636;9.798;2023-02-20T08:58:20;97660.38;;;8.32;96.79
2761;BME280;15420;48.636;9.798;2023-02-20T09:00:51;97659.81;;;8.39;95.29
2761;BME280;15420;48.636;9.798;2023-02-20T09:03:20;97667.78;;;8.45;95.84
2761;BME280;15420;48.636;9.798;2023-02-20T09:05:46;97661.16;;;8.50;95.42
2761;BME280;15420;48.636;9.798;2023-02-20T09:08:12;97669.94;;;8.55;94.98
2761;BME280;15420;48.636;9.798;2023-02-20T09:10:39;97660.81;;;8.62;93.89
2761;BME280;15420;48.636;9.798;2023-02-20T09:13:05;97656.75;;;8.67;94.98
2761;BME280;15420;48.636;9.798;2023-02-20T09:15:31;97660.50;;;8.75;93.57
2761;BME280;15420;48.636;9.798;2023-02-20T09:18:04;97643.53;;;8.78;93.82
2761;BME280;15420;48.636;9.798;2023-02-20T09:20:34;97645.59;;;8.87;93.78
2761;BME280;15420;48.636;9.798;2023-02-20T09:23:00;97640.72;;;8.93;92.66
2761;BME280;15420;48.636;9.798;2023-02-20T09:25:26;97638.41;;;8.99;92.39
2761;BME280;15420;48.636;9.798;2023-02-20T09:27:55;97643.03;;;9.08;92.40
2761;BME280;15420;48.636;9.798;2023-02-20T09:30:21;97639.84;;;9.13;91.94
2761;BME280;15420;48.636;9.798;2023-02-20T09:32:50;97640.16;;;9.21;91.78
2761;BME280;15420;48.636;9.798;2023-02-20T09:35:19;97630.97;;;9.28;90.82
2761;BME280;15420;48.636;9.798;2023-02-20T09:37:47;97635.56;;;9.35;90.68
2761;BME280;15420;48.636;9.798;2023-02-20T09:40:13;97634.00;;;9.40;90.98
2761;BME280;15420;48.636;9.798;2023-02-20T09:45:32;97622.63;;;9.56;90.20
2761;BME280;15420;48.636;9.798;2023-02-20T09:50:52;97608.75;;;9.74;89.20
2761;BME280;15420;48.636;9.798;2023-02-20T09:55:48;97612.06;;;9.94;86.96
2761;BME280;15420;48.636;9.798;2023-02-20T09:58:22;97610.66;;;10.02;85.84
2761;BME280;15420;48.636;9.798;2023-02-20T10:00:50;97611.53;;;10.03;84.50
2761;BME280;15420;48.636;9.798;2023-02-20T10:03:57;97595.69;;;10.16;83.40
2761;BME280;15420;48.636;9.798;2023-02-20T10:06:30;97597.59;;;10.20;83.19
2761;BME280;15420;48.636;9.798;2023-02-20T10:09:01;97599.50;;;10.26;82.63
2761;BME280;15420;48.636;9.798;2023-02-20T10:25:38;97591.81;;;10.78;79.53
2761;BME280;15420;48.636;9.798;2023-02-20T10:28:08;97595.63;;;10.89;79.35
2761;BME280;15420;48.636;9.798;2023-02-20T10:30:47;97595.97;;;11.00;79.10
2761;BME280;15420;48.636;9.798;2023-02-20T10:33:37;97587.72;;;11.10;79.01
2761;BME280;15420;48.636;9.798;2023-02-20T10:36:30;97579.19;;;11.12;78.07
2761;BME280;15420;48.636;9.798;2023-02-20T10:39:06;97582.81;;;11.18;78.03
2761;BME280;15420;48.636;9.798;2023-02-20T10:48:02;97569.75;;;11.40;76.62
2761;BME280;15420;48.636;9.798;2023-02-20T10:50:49;97576.94;;;11.52;77.55
2761;BME280;15420;48.636;9.798;2023-02-20T11:01:36;97576.19;;;11.83;74.87
2761;BME280;15420;48.636;9.798;2023-02-20T11:04:11;97568.50;;;11.86;75.56
2761;BME280;15420;48.636;9.798;2023-02-20T11:06:46;97562.69;;;11.93;74.22
2761;BME280;15420;48.636;9.798;2023-02-20T11:09:15;97560.31;;;12.00;74.40
2761;BME280;15420;48.636;9.798;2023-02-20T11:11:45;97557.13;;;12.09;74.40
2761;BME280;15420;48.636;9.798;2023-02-20T11:14:27;97557.34;;;12.17;73.21
2761;BME280;15420;48.636;9.798;2023-02-20T11:22:18;97544.09;;;12.37;73.23
2761;BME280;15420;48.636;9.798;2023-02-20T11:25:20;97546.22;;;12.54;71.61
2761;BME280;15420;48.636;9.798;2023-02-20T11:28:17;97542.03;;;12.59;70.83
2761;BME280;15420;48.636;9.798;2023-02-20T11:30:59;97544.72;;;12.62;71.70
2761;BME280;15420;48.636;9.798;2023-02-20T11:33:30;97527.72;;;12.71;70.53
2761;BME280;15420;48.636;9.798;2023-02-20T11:38:36;97528.88;;;12.84;71.30
2761;BME280;15420;48.636;9.798;2023-02-20T11:41:22;97521.22;;;12.89;69.32
2761;BME280;15420;48.636;9.798;2023-02-20T11:44:15;97518.97;;;13.02;69.70
2761;BME280;15420;48.636;9.798;2023-02-20T11:46:45;97513.72;;;12.99;70.35
2761;BME280;15420;48.636;9.798;2023-02-20T11:49:28;97513.97;;;13.10;69.37
2761;BME280;15420;48.636;9.798;2023-02-20T11:52:21;97508.13;;;13.17;67.97
2761;BME280;15420;48.636;9.798;2023-02-20T11:55:19;97512.56;;;13.23;68.15
2761;BME280;15420;48.636;9.798;2023-02-20T11:57:48;97501.34;;;13.22;67.09
2761;BME280;15420;48.636;9.798;2023-02-20T12:05:41;97495.88;;;13.48;65.97
2761;BME280;15420;48.636;9.798;2023-02-20T12:08:57;97485.56;;;13.52;65.29
2761;BME280;15420;48.636;9.798;2023-02-20T12:11:28;97481.34;;;13.57;65.47
2761;BME280;15420;48.636;9.798;2023-02-20T12:13:59;97478.06;;;13.64;64.47
2761;BME280;15420;48.636;9.798;2023-02-20T12:28:16;97450.44;;;14.10;63.58
2761;BME280;15420;48.636;9.798;2023-02-20T12:33:51;97448.28;;;14.36;62.60
2761;BME280;15420;48.636;9.798;2023-02-20T12:36:38;97437.28;;;14.48;62.57
2761;BME280;15420;48.636;9.798;2023-02-20T12:39:42;97441.78;;;14.61;61.77
2761;BME280;15420;48.636;9.798;2023-02-20T12:45:47;97432.75;;;14.92;60.53
2761;BME280;15420;48.636;9.798;2023-02-20T12:48:41;97427.78;;;15.09;60.35
2761;BME280;15420;48.636;9.798;2023-02-20T12:59:30;97421.53;;;15.61;59.09
2761;BME280;15420;48.636;9.798;2023-02-20T13:02:19;97416.50;;;15.76;58.26
2761;BME280;15420;48.636;9.798;2023-02-20T13:04:55;97417.47;;;15.84;58.44
2761;BME280;15420;48.636;9.798;2023-02-20T13:12:39;97404.81;;;16.19;58.55
2761;BME280;15420;48.636;9.798;2023-02-20T13:15:27;97397.97;;;16.30;57.01
2761;BME280;15420;48.636;9.798;2023-02-20T13:20:35;97388.63;;;16.52;57.81
2761;BME280;15420;48.636;9.798;2023-02-20T13:23:23;97392.16;;;16.60;56.89
2761;BME280;15420;48.636;9.798;2023-02-20T13:25:51;97392.22;;;16.70;56.65
2761;BME280;15420;48.636;9.798;2023-02-20T13:28:37;97379.28;;;16.83;56.59
2761;BME280;15420;48.636;9.798;2023-02-20T13:34:24;97378.47;;;16.93;56.44
2761;BME280;15420;48.636;9.798;2023-02-20T13:47:01;97359.53;;;17.20;54.55
2761;BME280;15420;48.636;9.798;2023-02-20T13:52:32;97350.03;;;17.33;53.94
2761;BME280;15420;48.636;9.798;2023-02-20T13:57:48;97333.53;;;17.42;52.74
2761;BME280;15420;48.636;9.798;2023-02-20T14:05:59;97304.91;;;17.51;52.01
2761;BME280;15420;48.636;9.798;2023-02-20T14:08:25;97295.38;;;17.56;52.34
2761;BME280;15420;48.636;9.798;2023-02-20T14:10:53;97297.13;;;17.60;52.27
2761;BME280;15420;48.636;9.798;2023-02-20T14:13:21;97294.53;;;17.66;52.78
2761;BME280;15420;48.636;9.798;2023-02-20T14:15:51;97286.69;;;17.69;51.38
2761;BME280;15420;48.636;9.798;2023-02-20T14:18:39;97292.78;;;17.73;51.65
2761;BME280;15420;48.636;9.798;2023-02-20T14:21:21;97282.34;;;17.73;51.79
2761;BME280;15420;48.636;9.798;2023-02-20T14:23:55;97278.03;;;17.67;49.85
2761;BME280;15420;48.636;9.798;2023-02-20T14:26:31;97291.91;;;17.69;49.68
2761;BME280;15420;48.636;9.798;2023-02-20T14:28:59;97285.81;;;17.64;50.43
2761;BME280;15420;48.636;9.798;2023-02-20T14:31:32;97279.72;;;17.60;49.14
2761;BME280;15420;48.636;9.798;2023-02-20T14:34:08;97272.78;;;17.58;48.55
2761;BME280;15420;48.636;9.798;2023-02-20T14:39:42;97278.84;;;17.42;47.51
2761;BME280;15420;48.636;9.798;2023-02-20T14:42:21;97286.66;;;17.42;47.90
2761;BME280;15420;48.636;9.798;2023-02-20T14:44:48;97288.38;;;17.35;46.89
2761;BME280;15420;48.636;9.798;2023-02-20T14:47:16;97277.94;;;17.30;47.47
2761;BME280;15420;48.636;9.798;2023-02-20T14:49:43;97265.78;;;17.26;46.58
2761;BME280;15420;48.636;9.798;2023-02-20T14:54:40;97264.88;;;17.18;46.31
2761;BME280;15420;48.636;9.798;2023-02-20T14:57:13;97276.16;;;17.11;45.57
2761;BME280;15420;48.636;9.798;2023-02-20T14:59:42;97279.63;;;17.10;46.07
2761;BME280;15420;48.636;9.798;2023-02-20T15:02:18;97266.56;;;17.06;47.04
2761;BME280;15420;48.636;9.798;2023-02-20T15:04:49;97250.94;;;16.96;45.58
2761;BME280;15420;48.636;9.798;2023-02-20T15:07:22;97263.94;;;16.95;47.11
2761;BME280;15420;48.636;9.798;2023-02-20T15:09:58;97262.19;;;16.88;47.43
2761;BME280;15420;48.636;9.798;2023-02-20T15:12:38;97266.50;;;16.84;46.40
2761;BME280;15420;48.636;9.798;2023-02-20T15:15:06;97266.47;;;16.78;47.02
2761;BME280;15420;48.636;9.798;2023-02-20T15:17:43;97251.69;;;16.74;47.72
2761;BME280;15420;48.636;9.798;2023-02-20T15:20:39;97245.59;;;16.69;47.08
2761;BME280;15420;48.636;9.798;2023-02-20T15:25:41;97248.13;;;16.54;46.95
2761;BME280;15420;48.636;9.798;2023-02-20T15:33:40;97248.94;;;16.42;47.21
2761;BME280;15420;48.636;9.798;2023-02-20T15:36:12;97246.31;;;16.38;47.75
2761;BME280;15420;48.636;9.798;2023-02-20T15:38:40;97241.09;;;16.33;47.50
2761;BME280;15420;48.636;9.798;2023-02-20T15:41:07;97250.56;;;16.26;45.85
2761;BME280;15420;48.636;9.798;2023-02-20T15:43:37;97239.28;;;16.23;48.33
2761;BME280;15420;48.636;9.798;2023-02-20T15:46:05;97224.53;;;16.17;47.47
2761;BME280;15420;48.636;9.798;2023-02-20T15:48:34;97225.34;;;16.12;46.35
2761;BME280;15420;48.636;9.798;2023-02-20T15:51:05;97221.84;;;16.07;46.27
2761;BME280;15420;48.636;9.798;2023-02-20T15:53:32;97219.22;;;16.00;47.11
2761;BME280;15420;48.636;9.798;2023-02-20T15:56:02;97222.66;;;15.98;46.69
2761;BME280;15420;48.636;9.798;2023-02-20T15:58:48;97220.03;;;15.93;48.76
2761;BME280;15420;48.636;9.798;2023-02-20T16:01:17;97219.97;;;15.87;49.48
2761;BME280;15420;48.636;9.798;2023-02-20T16:03:43;97215.66;;;15.88;48.47
2761;BME280;15420;48.636;9.798;2023-02-20T16:06:12;97208.66;;;15.79;50.87
2761;BME280;15420;48.636;9.798;2023-02-20T16:08:41;97210.34;;;15.74;50.20
2761;BME280;15420;48.636;9.798;2023-02-20T16:11:10;97217.19;;;15.63;50.89
2761;BME280;15420;48.636;9.798;2023-02-20T16:13:44;97216.25;;;15.55;50.98
2761;BME280;15420;48.636;9.798;2023-02-20T16:16:33;97221.34;;;15.43;52.60
2761;BME280;15420;48.636;9.798;2023-02-20T16:19:00;97216.94;;;15.32;52.64
2761;BME280;15420;48.636;9.798;2023-02-20T16:21:27;97218.56;;;15.23;52.89
2761;BME280;15420;48.636;9.798;2023-02-20T16:23:55;97215.03;;;15.16;52.36
2761;BME280;15420;48.636;9.798;2023-02-20T16:26:24;97211.56;;;15.16;52.83
2761;BME280;15420;48.636;9.798;2023-02-20T16:28:58;97217.53;;;15.07;52.98